sensor_id;sensor_type;location;lat;lon;timestamp;P1;durP1;ratioP1;P2;durP2;ratioP2
59950;SDS011;45812;53.540;9.774;2022-07-23T00:00:06;3.72;;;1.33;;
59950;SDS011;45812;53.540;9.774;2022-07-23T00:02:33;2.50;;;1.60;;
59950;SDS011;45812;53.540;9.774;2022-07-23T00:04:58;4.68;;;1.33;;
59950;SDS011;45812;53.540;9.774;2022-07-23T00:07:23;3.22;;;1.80;;
59950;SDS011;45812;53.540;9.774;2022-07-23T00:09:48;5.07;;;1.88;;
59950;SDS011;45812;53.540;9.774;2022-07-23T00:12:14;3.90;;;1.60;;
59950;SDS011;45812;53.540;9.774;2022-07-23T00:14:39;3.28;;;1.15;;
59950;SDS011;45812;53.540;9.774;2022-07-23T00:17:04;4.07;;;1.38;;
59950;SDS011;45812;53.540;9.774;2022-07-23T00:19:30;4.75;;;1.85;;
59950;SDS011;45812;53.540;9.774;2022-07-23T00:21:55;4.05;;;1.63;;
59950;SDS011;45812;53.540;9.774;2022-07-23T00:24:20;3.00;;;1.80;;
59950;SDS011;45812;53.540;9.774;2022-07-23T00:26:46;3.80;;;1.50;;
59950;SDS011;45812;53.540;9.774;2022-07-23T00:29:11;2.13;;;1.52;;
59950;SDS011;45812;53.540;9.774;2022-07-23T00:31:36;3.17;;;1.23;;
59950;SDS011;45812;53.540;9.774;2022-07-23T00:34:02;3.55;;;1.50;;
59950;SDS011;45812;53.540;9.774;2022-07-23T00:36:27;3.53;;;1.42;;
59950;SDS011;45812;53.540;9.774;2022-07-23T00:38:53;4.47;;;1.50;;
59950;SDS011;45812;53.540;9.774;2022-07-23T00:41:19;5.93;;;1.58;;
59950;SDS011;45812;53.540;9.774;2022-07-23T00:43:44;1.60;;;1.30;;
59950;SDS011;45812;53.540;9.774;2022-07-23T00:46:10;3.90;;;1.85;;
59950;SDS011;45812;53.540;9.774;2022-07-23T00:48:35;5.35;;;1.35;;
59950;SDS011;45812;53.540;9.774;2022-07-23T00:51:01;3.35;;;1.58;;
59950;SDS011;45812;53.540;9.774;2022-07-23T00:53:26;2.70;;;1.70;;
59950;SDS011;45812;53.540;9.774;2022-07-23T00:55:52;4.65;;;2.03;;
59950;SDS011;45812;53.540;9.774;2022-07-23T00:58:19;3.90;;;1.58;;
59950;SDS011;45812;53.540;9.774;2022-07-23T01:00:44;3.10;;;1.15;;
59950;SDS011;45812;53.540;9.774;2022-07-23T01:03:10;5.47;;;1.35;;
59950;SDS011;45812;53.540;9.774;2022-07-23T01:05:35;3.65;;;1.50;;
59950;SDS011;45812;53.540;9.774;2022-07-23T01:08:01;2.42;;;1.23;;
59950;SDS011;45812;53.540;9.774;2022-07-23T01:10:27;4.80;;;1.42;;
59950;SDS011;45812;53.540;9.774;2022-07-23T01:13:08;4.70;;;1.45;;
59950;SDS011;45812;53.540;9.774;2022-07-23T01:15:35;7.47;;;1.70;;
59950;SDS011;45812;53.540;9.774;2022-07-23T01:18:02;2.53;;;1.48;;
59950;SDS011;45812;53.540;9.774;2022-07-23T01:20:28;4.05;;;1.38;;
59950;SDS011;45812;53.540;9.774;2022-07-23T01:22:54;3.95;;;1.45;;
59950;SDS011;45812;53.540;9.774;2022-07-23T01:25:20;3.42;;;1.60;;
59950;SDS011;45812;53.540;9.774;2022-07-23T01:27:46;1.98;;;1.10;;
59950;SDS011;45812;53.540;9.774;2022-07-23T01:30:12;7.05;;;1.52;;
59950;SDS011;45812;53.540;9.774;2022-07-23T01:32:38;6.35;;;2.17;;
59950;SDS011;45812;53.540;9.774;2022-07-23T01:35:04;3.55;;;1.48;;
59950;SDS011;45812;53.540;9.774;2022-07-23T01:37:29;4.53;;;1.42;;
59950;SDS011;45812;53.540;9.774;2022-07-23T01:39:55;7.05;;;2.70;;
59950;SDS011;45812;53.540;9.774;2022-07-23T01:42:20;1.10;;;1.00;;
59950;SDS011;45812;53.540;9.774;2022-07-23T01:44:45;6.20;;;2.03;;
59950;SDS011;45812;53.540;9.774;2022-07-23T01:47:11;1.70;;;1.50;;
59950;SDS011;45812;53.540;9.774;2022-07-23T01:49:36;4.18;;;1.85;;
59950;SDS011;45812;53.540;9.774;2022-07-23T01:52:02;5.38;;;1.63;;
59950;SDS011;45812;53.540;9.774;2022-07-23T01:54:31;2.75;;;1.52;;
59950;SDS011;45812;53.540;9.774;2022-07-23T01:56:58;5.55;;;1.58;;
59950;SDS011;45812;53.540;9.774;2022-07-23T01:59:24;5.95;;;2.00;;
59950;SDS011;45812;53.540;9.774;2022-07-23T02:01:50;5.10;;;1.70;;
59950;SDS011;45812;53.540;9.774;2022-07-23T02:04:16;3.13;;;1.65;;
59950;SDS011;45812;53.540;9.774;2022-07-23T02:06:42;4.60;;;1.58;;
59950;SDS011;45812;53.540;9.774;2022-07-23T02:09:07;4.80;;;1.65;;
59950;SDS011;45812;53.540;9.774;2022-07-23T02:11:32;4.32;;;1.83;;
59950;SDS011;45812;53.540;9.774;2022-07-23T02:13:58;5.10;;;1.63;;
59950;SDS011;45812;53.540;9.774;2022-07-23T02:16:23;2.67;;;1.77;;
59950;SDS011;45812;53.540;9.774;2022-07-23T02:18:48;9.73;;;1.88;;
59950;SDS011;45812;53.540;9.774;2022-07-23T02:21:14;5.40;;;2.08;;
59950;SDS011;45812;53.540;9.774;2022-07-23T02:23:39;5.07;;;1.48;;
59950;SDS011;45812;53.540;9.774;2022-07-23T02:26:04;4.28;;;2.17;;
59950;SDS011;45812;53.540;9.774;2022-07-23T02:28:30;3.10;;;1.48;;
59950;SDS011;45812;53.540;9.774;2022-07-23T02:30:55;5.05;;;2.10;;
59950;SDS011;45812;53.540;9.774;2022-07-23T02:33:20;3.83;;;1.85;;
59950;SDS011;45812;53.540;9.774;2022-07-23T02:35:45;3.65;;;2.38;;
59950;SDS011;45812;53.540;9.774;2022-07-23T02:38:11;5.18;;;2.20;;
59950;SDS011;45812;53.540;9.774;2022-07-23T02:40:36;3.00;;;2.15;;
59950;SDS011;45812;53.540;9.774;2022-07-23T02:43:01;5.63;;;2.25;;
59950;SDS011;45812;53.540;9.774;2022-07-23T02:45:27;4.90;;;2.05;;
59950;SDS011;45812;53.540;9.774;2022-07-23T02:47:52;5.57;;;2.05;;
59950;SDS011;45812;53.540;9.774;2022-07-23T02:50:18;5.13;;;1.95;;
59950;SDS011;45812;53.540;9.774;2022-07-23T02:52:43;9.30;;;2.60;;
59950;SDS011;45812;53.540;9.774;2022-07-23T02:55:08;3.30;;;2.38;;
59950;SDS011;45812;53.540;9.774;2022-07-23T02:57:34;4.80;;;1.80;;
59950;SDS011;45812;53.540;9.774;2022-07-23T02:59:59;2.58;;;2.17;;
59950;SDS011;45812;53.540;9.774;2022-07-23T03:02:24;3.92;;;2.00;;
59950;SDS011;45812;53.540;9.774;2022-07-23T03:04:49;5.78;;;2.20;;
59950;SDS011;45812;53.540;9.774;2022-07-23T03:07:15;6.05;;;2.38;;
59950;SDS011;45812;53.540;9.774;2022-07-23T03:09:41;6.72;;;2.40;;
59950;SDS011;45812;53.540;9.774;2022-07-23T03:12:07;2.60;;;2.40;;
59950;SDS011;45812;53.540;9.774;2022-07-23T03:14:32;5.95;;;2.40;;
59950;SDS011;45812;53.540;9.774;2022-07-23T03:16:58;5.47;;;2.33;;
59950;SDS011;45812;53.540;9.774;2022-07-23T03:19:24;7.10;;;2.47;;
59950;SDS011;45812;53.540;9.774;2022-07-23T03:21:50;5.60;;;2.92;;
59950;SDS011;45812;53.540;9.774;2022-07-23T03:24:15;5.38;;;2.78;;
59950;SDS011;45812;53.540;9.774;2022-07-23T03:26:42;6.63;;;2.88;;
59950;SDS011;45812;53.540;9.774;2022-07-23T03:29:08;4.75;;;2.70;;
59950;SDS011;45812;53.540;9.774;2022-07-23T03:31:33;10.60;;;3.38;;
59950;SDS011;45812;53.540;9.774;2022-07-23T03:33:58;9.73;;;3.17;;
59950;SDS011;45812;53.540;9.774;2022-07-23T03:36:24;6.95;;;3.38;;
59950;SDS011;45812;53.540;9.774;2022-07-23T03:38:50;8.02;;;2.90;;
59950;SDS011;45812;53.540;9.774;2022-07-23T03:41:15;6.40;;;3.08;;
59950;SDS011;45812;53.540;9.774;2022-07-23T03:43:41;10.20;;;3.42;;
59950;SDS011;45812;53.540;9.774;2022-07-23T03:46:06;4.72;;;2.97;;
59950;SDS011;45812;53.540;9.774;2022-07-23T03:48:31;9.30;;;3.28;;
59950;SDS011;45812;53.540;9.774;2022-07-23T03:50:57;4.93;;;3.00;;
59950;SDS011;45812;53.540;9.774;2022-07-23T03:53:22;5.97;;;3.28;;
59950;SDS011;45812;53.540;9.774;2022-07-23T03:55:47;5.30;;;3.63;;
59950;SDS011;45812;53.540;9.774;2022-07-23T03:58:13;5.93;;;2.80;;
59950;SDS011;45812;53.540;9.774;2022-07-23T04:00:38;4.10;;;3.08;;
59950;SDS011;45812;53.540;9.774;2022-07-23T04:03:03;7.13;;;3.17;;
59950;SDS011;45812;53.540;9.774;2022-07-23T04:05:29;4.85;;;2.60;;
59950;SDS011;45812;53.540;9.774;2022-07-23T04:07:54;6.75;;;3.28;;
59950;SDS011;45812;53.540;9.774;2022-07-23T04:10:19;5.95;;;3.10;;
59950;SDS011;45812;53.540;9.774;2022-07-23T04:12:45;7.45;;;3.03;;
59950;SDS011;45812;53.540;9.774;2022-07-23T04:15:10;5.93;;;3.20;;
59950;SDS011;45812;53.540;9.774;2022-07-23T04:17:35;9.25;;;3.05;;
59950;SDS011;45812;53.540;9.774;2022-07-23T04:20:01;5.22;;;2.95;;
59950;SDS011;45812;53.540;9.774;2022-07-23T04:22:26;4.88;;;3.15;;
59950;SDS011;45812;53.540;9.774;2022-07-23T04:24:52;6.00;;;3.13;;
59950;SDS011;45812;53.540;9.774;2022-07-23T04:27:17;5.07;;;3.30;;
59950;SDS011;45812;53.540;9.774;2022-07-23T04:29:43;5.50;;;3.20;;
59950;SDS011;45812;53.540;9.774;2022-07-23T04:32:08;5.93;;;3.00;;
59950;SDS011;45812;53.540;9.774;2022-07-23T04:34:34;4.90;;;2.85;;
59950;SDS011;45812;53.540;9.774;2022-07-23T04:36:59;8.23;;;3.42;;
59950;SDS011;45812;53.540;9.774;2022-07-23T04:39:24;5.57;;;2.88;;
59950;SDS011;45812;53.540;9.774;2022-07-23T04:41:49;4.50;;;2.30;;
59950;SDS011;45812;53.540;9.774;2022-07-23T04:44:15;5.95;;;2.13;;
59950;SDS011;45812;53.540;9.774;2022-07-23T04:46:40;4.22;;;1.70;;
59950;SDS011;45812;53.540;9.774;2022-07-23T04:49:05;4.63;;;1.50;;
59950;SDS011;45812;53.540;9.774;2022-07-23T04:51:31;3.40;;;1.75;;
59950;SDS011;45812;53.540;9.774;2022-07-23T04:53:56;1.65;;;1.55;;
59950;SDS011;45812;53.540;9.774;2022-07-23T04:56:21;3.25;;;1.67;;
59950;SDS011;45812;53.540;9.774;2022-07-23T04:58:47;1.90;;;1.40;;
59950;SDS011;45812;53.540;9.774;2022-07-23T05:01:12;3.40;;;1.90;;
59950;SDS011;45812;53.540;9.774;2022-07-23T05:03:38;2.83;;;1.48;;
59950;SDS011;45812;53.540;9.774;2022-07-23T05:06:03;2.25;;;1.55;;
59950;SDS011;45812;53.540;9.774;2022-07-23T05:08:28;3.30;;;1.45;;
59950;SDS011;45812;53.540;9.774;2022-07-23T05:10:54;1.35;;;1.17;;
59950;SDS011;45812;53.540;9.774;2022-07-23T05:13:19;2.47;;;2.03;;
59950;SDS011;45812;53.540;9.774;2022-07-23T05:15:45;2.17;;;2.00;;
59950;SDS011;45812;53.540;9.774;2022-07-23T05:18:11;2.17;;;1.98;;
59950;SDS011;45812;53.540;9.774;2022-07-23T05:20:36;4.32;;;1.90;;
59950;SDS011;45812;53.540;9.774;2022-07-23T05:23:02;1.73;;;1.60;;
59950;SDS011;45812;53.540;9.774;2022-07-23T05:25:27;2.80;;;2.03;;
59950;SDS011;45812;53.540;9.774;2022-07-23T05:27:53;4.30;;;2.13;;
59950;SDS011;45812;53.540;9.774;2022-07-23T05:30:18;3.95;;;2.33;;
59950;SDS011;45812;53.540;9.774;2022-07-23T05:32:43;4.28;;;2.40;;
59950;SDS011;45812;53.540;9.774;2022-07-23T05:35:09;3.55;;;2.42;;
59950;SDS011;45812;53.540;9.774;2022-07-23T05:37:34;6.50;;;3.22;;
59950;SDS011;45812;53.540;9.774;2022-07-23T05:40:01;2.90;;;2.25;;
59950;SDS011;45812;53.540;9.774;2022-07-23T05:42:32;7.55;;;2.58;;
59950;SDS011;45812;53.540;9.774;2022-07-23T05:45:01;3.53;;;2.80;;
59950;SDS011;45812;53.540;9.774;2022-07-23T05:47:26;9.23;;;3.28;;
59950;SDS011;45812;53.540;9.774;2022-07-23T05:49:51;4.75;;;2.70;;
59950;SDS011;45812;53.540;9.774;2022-07-23T05:52:17;6.45;;;2.60;;
59950;SDS011;45812;53.540;9.774;2022-07-23T05:54:42;9.52;;;2.65;;
59950;SDS011;45812;53.540;9.774;2022-07-23T05:57:07;3.15;;;2.60;;
59950;SDS011;45812;53.540;9.774;2022-07-23T05:59:33;7.47;;;2.60;;
59950;SDS011;45812;53.540;9.774;2022-07-23T06:01:58;5.07;;;2.20;;
59950;SDS011;45812;53.540;9.774;2022-07-23T06:04:24;5.18;;;2.58;;
59950;SDS011;45812;53.540;9.774;2022-07-23T06:06:49;4.35;;;2.45;;
59950;SDS011;45812;53.540;9.774;2022-07-23T06:09:14;5.72;;;2.97;;
59950;SDS011;45812;53.540;9.774;2022-07-23T06:11:40;4.70;;;2.95;;
59950;SDS011;45812;53.540;9.774;2022-07-23T06:14:06;3.53;;;2.42;;
59950;SDS011;45812;53.540;9.774;2022-07-23T06:16:31;4.50;;;2.72;;
59950;SDS011;45812;53.540;9.774;2022-07-23T06:18:56;3.45;;;2.63;;
59950;SDS011;45812;53.540;9.774;2022-07-23T06:21:22;5.72;;;3.30;;
59950;SDS011;45812;53.540;9.774;2022-07-23T06:23:47;5.75;;;2.03;;
59950;SDS011;45812;53.540;9.774;2022-07-23T06:26:12;5.03;;;2.60;;
59950;SDS011;45812;53.540;9.774;2022-07-23T06:28:38;3.70;;;2.55;;
59950;SDS011;45812;53.540;9.774;2022-07-23T06:31:03;2.10;;;1.90;;
59950;SDS011;45812;53.540;9.774;2022-07-23T06:33:28;4.63;;;2.10;;
59950;SDS011;45812;53.540;9.774;2022-07-23T06:35:53;4.78;;;1.30;;
59950;SDS011;45812;53.540;9.774;2022-07-23T06:38:19;4.10;;;0.95;;
59950;SDS011;45812;53.540;9.774;2022-07-23T06:40:44;1.20;;;1.00;;
59950;SDS011;45812;53.540;9.774;2022-07-23T06:43:10;3.28;;;0.80;;
59950;SDS011;45812;53.540;9.774;2022-07-23T06:45:35;0.75;;;0.60;;
59950;SDS011;45812;53.540;9.774;2022-07-23T06:48:01;4.82;;;1.05;;
59950;SDS011;45812;53.540;9.774;2022-07-23T06:50:27;4.43;;;0.75;;
59950;SDS011;45812;53.540;9.774;2022-07-23T06:52:53;0.93;;;0.93;;
59950;SDS011;45812;53.540;9.774;2022-07-23T06:55:18;0.70;;;0.70;;
59950;SDS011;45812;53.540;9.774;2022-07-23T06:57:43;2.38;;;1.15;;
59950;SDS011;45812;53.540;9.774;2022-07-23T07:00:09;3.05;;;1.60;;
59950;SDS011;45812;53.540;9.774;2022-07-23T07:02:35;3.17;;;1.35;;
59950;SDS011;45812;53.540;9.774;2022-07-23T07:05:00;1.73;;;1.63;;
59950;SDS011;45812;53.540;9.774;2022-07-23T07:07:25;1.70;;;1.60;;
59950;SDS011;45812;53.540;9.774;2022-07-23T07:09:51;3.22;;;2.17;;
59950;SDS011;45812;53.540;9.774;2022-07-23T07:12:16;5.80;;;1.58;;
59950;SDS011;45812;53.540;9.774;2022-07-23T07:14:41;3.00;;;1.20;;
59950;SDS011;45812;53.540;9.774;2022-07-23T07:17:06;2.13;;;1.42;;
59950;SDS011;45812;53.540;9.774;2022-07-23T07:19:32;0.90;;;0.80;;
59950;SDS011;45812;53.540;9.774;2022-07-23T07:21:57;1.13;;;0.63;;
59950;SDS011;45812;53.540;9.774;2022-07-23T07:24:22;0.63;;;0.63;;
59950;SDS011;45812;53.540;9.774;2022-07-23T07:26:48;1.55;;;0.70;;
59950;SDS011;45812;53.540;9.774;2022-07-23T07:29:13;1.10;;;0.50;;
59950;SDS011;45812;53.540;9.774;2022-07-23T07:31:38;2.10;;;1.25;;
59950;SDS011;45812;53.540;9.774;2022-07-23T07:34:04;2.92;;;1.00;;
59950;SDS011;45812;53.540;9.774;2022-07-23T07:36:29;0.68;;;0.68;;
59950;SDS011;45812;53.540;9.774;2022-07-23T07:38:54;0.50;;;0.50;;
59950;SDS011;45812;53.540;9.774;2022-07-23T07:41:20;6.68;;;1.10;;
59950;SDS011;45812;53.540;9.774;2022-07-23T07:43:49;2.35;;;0.90;;
59950;SDS011;45812;53.540;9.774;2022-07-23T07:46:14;2.85;;;0.63;;
59950;SDS011;45812;53.540;9.774;2022-07-23T07:48:40;2.13;;;1.33;;
59950;SDS011;45812;53.540;9.774;2022-07-23T07:51:05;0.70;;;0.70;;
59950;SDS011;45812;53.540;9.774;2022-07-23T07:53:31;1.20;;;0.70;;
59950;SDS011;45812;53.540;9.774;2022-07-23T07:55:56;0.80;;;0.80;;
59950;SDS011;45812;53.540;9.774;2022-07-23T07:58:21;2.88;;;1.00;;
59950;SDS011;45812;53.540;9.774;2022-07-23T08:00:47;2.75;;;0.65;;
59950;SDS011;45812;53.540;9.774;2022-07-23T08:03:12;0.60;;;0.55;;
59950;SDS011;45812;53.540;9.774;2022-07-23T08:05:38;0.73;;;0.55;;
59950;SDS011;45812;53.540;9.774;2022-07-23T08:08:03;0.60;;;0.60;;
59950;SDS011;45812;53.540;9.774;2022-07-23T08:10:29;1.42;;;0.82;;
59950;SDS011;45812;53.540;9.774;2022-07-23T08:12:56;0.30;;;0.30;;
59950;SDS011;45812;53.540;9.774;2022-07-23T08:15:22;1.38;;;0.52;;
59950;SDS011;45812;53.540;9.774;2022-07-23T08:17:49;0.80;;;0.50;;
59950;SDS011;45812;53.540;9.774;2022-07-23T08:20:16;0.77;;;0.70;;
59950;SDS011;45812;53.540;9.774;2022-07-23T08:22:43;0.43;;;0.43;;
59950;SDS011;45812;53.540;9.774;2022-07-23T08:25:29;1.45;;;0.30;;
59950;SDS011;45812;53.540;9.774;2022-07-23T08:27:57;0.55;;;0.50;;
59950;SDS011;45812;53.540;9.774;2022-07-23T08:30:24;1.08;;;0.98;;
59950;SDS011;45812;53.540;9.774;2022-07-23T08:32:55;0.65;;;0.65;;
59950;SDS011;45812;53.540;9.774;2022-07-23T08:35:25;0.40;;;0.40;;
59950;SDS011;45812;53.540;9.774;2022-07-23T08:37:54;0.60;;;0.50;;
59950;SDS011;45812;53.540;9.774;2022-07-23T08:40:20;1.45;;;0.60;;
59950;SDS011;45812;53.540;9.774;2022-07-23T08:42:49;0.47;;;0.22;;
59950;SDS011;45812;53.540;9.774;2022-07-23T08:45:16;1.75;;;0.43;;
59950;SDS011;45812;53.540;9.774;2022-07-23T08:47:44;1.23;;;0.70;;
59950;SDS011;45812;53.540;9.774;2022-07-23T08:50:10;0.68;;;0.68;;
59950;SDS011;45812;53.540;9.774;2022-07-23T08:52:35;0.50;;;0.50;;
59950;SDS011;45812;53.540;9.774;2022-07-23T08:55:02;2.35;;;0.77;;
59950;SDS011;45812;53.540;9.774;2022-07-23T08:57:28;0.73;;;0.73;;
59950;SDS011;45812;53.540;9.774;2022-07-23T08:59:53;1.52;;;0.80;;
59950;SDS011;45812;53.540;9.774;2022-07-23T09:02:18;1.30;;;0.70;;
59950;SDS011;45812;53.540;9.774;2022-07-23T09:04:43;1.48;;;0.60;;
59950;SDS011;45812;53.540;9.774;2022-07-23T09:07:09;2.87;;;0.63;;
59950;SDS011;45812;53.540;9.774;2022-07-23T09:09:34;1.90;;;0.35;;
59950;SDS011;45812;53.540;9.774;2022-07-23T09:12:04;10.88;;;2.35;;
59950;SDS011;45812;53.540;9.774;2022-07-23T09:14:43;1.20;;;0.57;;
59950;SDS011;45812;53.540;9.774;2022-07-23T09:17:16;0.47;;;0.47;;
59950;SDS011;45812;53.540;9.774;2022-07-23T09:19:43;5.07;;;1.23;;
59950;SDS011;45812;53.540;9.774;2022-07-23T09:22:18;0.77;;;0.60;;
59950;SDS011;45812;53.540;9.774;2022-07-23T09:30:11;0.80;;;0.70;;
59950;SDS011;45812;53.540;9.774;2022-07-23T09:32:38;2.90;;;0.40;;
59950;SDS011;45812;53.540;9.774;2022-07-23T09:35:04;3.72;;;0.60;;
59950;SDS011;45812;53.540;9.774;2022-07-23T09:37:30;0.60;;;0.50;;
59950;SDS011;45812;53.540;9.774;2022-07-23T09:40:03;2.10;;;0.68;;
59950;SDS011;45812;53.540;9.774;2022-07-23T09:42:33;1.05;;;0.90;;
59950;SDS011;45812;53.540;9.774;2022-07-23T09:44:59;0.50;;;0.50;;
59950;SDS011;45812;53.540;9.774;2022-07-23T09:47:26;2.42;;;0.50;;
59950;SDS011;45812;53.540;9.774;2022-07-23T09:52:34;0.70;;;0.50;;
59950;SDS011;45812;53.540;9.774;2022-07-23T09:55:03;0.80;;;0.32;;
59950;SDS011;45812;53.540;9.774;2022-07-23T09:57:31;0.40;;;0.40;;
59950;SDS011;45812;53.540;9.774;2022-07-23T09:59:57;0.25;;;0.20;;
59950;SDS011;45812;53.540;9.774;2022-07-23T10:02:25;1.02;;;0.30;;
59950;SDS011;45812;53.540;9.774;2022-07-23T10:04:53;2.25;;;0.40;;
59950;SDS011;45812;53.540;9.774;2022-07-23T10:07:21;0.30;;;0.30;;
59950;SDS011;45812;53.540;9.774;2022-07-23T10:09:48;0.90;;;0.30;;
59950;SDS011;45812;53.540;9.774;2022-07-23T10:12:17;2.55;;;0.70;;
59950;SDS011;45812;53.540;9.774;2022-07-23T10:14:59;1.95;;;0.40;;
59950;SDS011;45812;53.540;9.774;2022-07-23T10:17:25;1.45;;;0.40;;
59950;SDS011;45812;53.540;9.774;2022-07-23T10:19:52;0.32;;;0.30;;
59950;SDS011;45812;53.540;9.774;2022-07-23T10:22:19;2.83;;;0.40;;
59950;SDS011;45812;53.540;9.774;2022-07-23T10:30:36;0.52;;;0.38;;
59950;SDS011;45812;53.540;9.774;2022-07-23T10:33:30;0.70;;;0.32;;
59950;SDS011;45812;53.540;9.774;2022-07-23T10:36:11;0.50;;;0.50;;
59950;SDS011;45812;53.540;9.774;2022-07-23T10:39:44;1.08;;;0.45;;
59950;SDS011;45812;53.540;9.774;2022-07-23T10:41:53;0.80;;;0.70;;
59950;SDS011;45812;53.540;9.774;2022-07-23T10:44:40;1.17;;;0.60;;
59950;SDS011;45812;53.540;9.774;2022-07-23T10:47:11;0.98;;;0.57;;
59950;SDS011;45812;53.540;9.774;2022-07-23T10:50:16;3.13;;;0.50;;
59950;SDS011;45812;53.540;9.774;2022-07-23T10:57:59;0.47;;;0.40;;
59950;SDS011;45812;53.540;9.774;2022-07-23T11:00:26;0.88;;;0.43;;
59950;SDS011;45812;53.540;9.774;2022-07-23T11:03:00;0.60;;;0.57;;
59950;SDS011;45812;53.540;9.774;2022-07-23T11:05:42;3.95;;;0.60;;
59950;SDS011;45812;53.540;9.774;2022-07-23T11:08:10;1.95;;;0.40;;
59950;SDS011;45812;53.540;9.774;2022-07-23T11:26:49;1.40;;;0.65;;
59950;SDS011;45812;53.540;9.774;2022-07-23T11:29:37;2.70;;;0.70;;
59950;SDS011;45812;53.540;9.774;2022-07-23T11:34:45;2.50;;;0.85;;
59950;SDS011;45812;53.540;9.774;2022-07-23T11:37:12;2.35;;;0.57;;
59950;SDS011;45812;53.540;9.774;2022-07-23T11:39:55;3.22;;;0.65;;
59950;SDS011;45812;53.540;9.774;2022-07-23T11:42:22;1.65;;;0.70;;
59950;SDS011;45812;53.540;9.774;2022-07-23T11:44:49;5.38;;;1.10;;
59950;SDS011;45812;53.540;9.774;2022-07-23T11:47:15;0.50;;;0.50;;
59950;SDS011;45812;53.540;9.774;2022-07-23T11:52:38;3.08;;;0.68;;
59950;SDS011;45812;53.540;9.774;2022-07-23T11:57:32;1.80;;;0.85;;
59950;SDS011;45812;53.540;9.774;2022-07-23T12:00:14;2.75;;;0.98;;
59950;SDS011;45812;53.540;9.774;2022-07-23T12:02:46;4.88;;;1.02;;
59950;SDS011;45812;53.540;9.774;2022-07-23T12:05:13;2.03;;;1.00;;
59950;SDS011;45812;53.540;9.774;2022-07-23T12:07:41;6.05;;;1.40;;
59950;SDS011;45812;53.540;9.774;2022-07-23T12:10:18;4.72;;;1.48;;
59950;SDS011;45812;53.540;9.774;2022-07-23T12:12:49;5.65;;;1.25;;
59950;SDS011;45812;53.540;9.774;2022-07-23T12:15:17;3.45;;;1.33;;
59950;SDS011;45812;53.540;9.774;2022-07-23T12:17:47;1.80;;;0.90;;
59950;SDS011;45812;53.540;9.774;2022-07-23T12:20:14;3.72;;;1.27;;
59950;SDS011;45812;53.540;9.774;2022-07-23T12:22:42;1.58;;;1.00;;
59950;SDS011;45812;53.540;9.774;2022-07-23T12:25:11;3.65;;;1.20;;
59950;SDS011;45812;53.540;9.774;2022-07-23T12:27:38;1.52;;;0.93;;
59950;SDS011;45812;53.540;9.774;2022-07-23T12:32:47;2.10;;;1.20;;
59950;SDS011;45812;53.540;9.774;2022-07-23T12:35:13;4.35;;;1.42;;
59950;SDS011;45812;53.540;9.774;2022-07-23T12:37:40;0.93;;;0.93;;
59950;SDS011;45812;53.540;9.774;2022-07-23T12:42:55;4.40;;;1.08;;
59950;SDS011;45812;53.540;9.774;2022-07-23T12:45:23;1.40;;;0.90;;
59950;SDS011;45812;53.540;9.774;2022-07-23T12:47:54;2.17;;;1.10;;
59950;SDS011;45812;53.540;9.774;2022-07-23T12:53:14;0.85;;;0.65;;
59950;SDS011;45812;53.540;9.774;2022-07-23T12:55:42;3.30;;;0.77;;
59950;SDS011;45812;53.540;9.774;2022-07-23T12:58:10;2.40;;;1.00;;
59950;SDS011;45812;53.540;9.774;2022-07-23T13:05:56;0.93;;;0.40;;
59950;SDS011;45812;53.540;9.774;2022-07-23T13:08:23;0.75;;;0.75;;
59950;SDS011;45812;53.540;9.774;2022-07-23T13:10:49;3.28;;;0.68;;
59950;SDS011;45812;53.540;9.774;2022-07-23T13:13:16;1.42;;;0.88;;
59950;SDS011;45812;53.540;9.774;2022-07-23T13:15:44;0.88;;;0.82;;
59950;SDS011;45812;53.540;9.774;2022-07-23T13:18:09;5.80;;;1.80;;
59950;SDS011;45812;53.540;9.774;2022-07-23T13:20:35;4.10;;;0.80;;
59950;SDS011;45812;53.540;9.774;2022-07-23T13:23:01;0.73;;;0.68;;
59950;SDS011;45812;53.540;9.774;2022-07-23T13:25:27;4.43;;;0.90;;
59950;SDS011;45812;53.540;9.774;2022-07-23T13:27:52;0.90;;;0.90;;
59950;SDS011;45812;53.540;9.774;2022-07-23T13:30:17;0.65;;;0.55;;
59950;SDS011;45812;53.540;9.774;2022-07-23T13:32:43;2.45;;;0.80;;
59950;SDS011;45812;53.540;9.774;2022-07-23T13:35:08;1.05;;;0.85;;
59950;SDS011;45812;53.540;9.774;2022-07-23T13:37:34;0.55;;;0.55;;
59950;SDS011;45812;53.540;9.774;2022-07-23T13:40:00;1.20;;;0.95;;
59950;SDS011;45812;53.540;9.774;2022-07-23T13:42:26;1.17;;;0.60;;
59950;SDS011;45812;53.540;9.774;2022-07-23T13:44:52;0.60;;;0.60;;
59950;SDS011;45812;53.540;9.774;2022-07-23T13:47:17;0.60;;;0.60;;
59950;SDS011;45812;53.540;9.774;2022-07-23T13:49:42;1.10;;;0.70;;
59950;SDS011;45812;53.540;9.774;2022-07-23T13:52:08;1.92;;;1.20;;
59950;SDS011;45812;53.540;9.774;2022-07-23T13:54:33;2.42;;;1.10;;
59950;SDS011;45812;53.540;9.774;2022-07-23T13:56:58;1.27;;;0.90;;
59950;SDS011;45812;53.540;9.774;2022-07-23T13:59:24;1.60;;;0.60;;
59950;SDS011;45812;53.540;9.774;2022-07-23T14:01:50;4.03;;;0.70;;
59950;SDS011;45812;53.540;9.774;2022-07-23T14:04:16;2.85;;;0.88;;
59950;SDS011;45812;53.540;9.774;2022-07-23T14:06:41;4.28;;;0.88;;
59950;SDS011;45812;53.540;9.774;2022-07-23T14:09:06;2.08;;;0.90;;
59950;SDS011;45812;53.540;9.774;2022-07-23T14:11:32;3.72;;;1.13;;
59950;SDS011;45812;53.540;9.774;2022-07-23T14:13:58;1.27;;;0.65;;
59950;SDS011;45812;53.540;9.774;2022-07-23T14:16:25;0.98;;;0.80;;
59950;SDS011;45812;53.540;9.774;2022-07-23T14:18:51;3.75;;;0.70;;
59950;SDS011;45812;53.540;9.774;2022-07-23T14:21:16;1.23;;;0.60;;
59950;SDS011;45812;53.540;9.774;2022-07-23T14:23:41;1.95;;;0.73;;
59950;SDS011;45812;53.540;9.774;2022-07-23T14:26:07;6.65;;;1.15;;
59950;SDS011;45812;53.540;9.774;2022-07-23T14:28:33;0.60;;;0.60;;
59950;SDS011;45812;53.540;9.774;2022-07-23T14:30:58;2.05;;;1.08;;
59950;SDS011;45812;53.540;9.774;2022-07-23T14:33:24;1.83;;;0.68;;
59950;SDS011;45812;53.540;9.774;2022-07-23T14:35:49;1.73;;;1.13;;
59950;SDS011;45812;53.540;9.774;2022-07-23T14:38:14;2.13;;;1.00;;
59950;SDS011;45812;53.540;9.774;2022-07-23T14:40:40;3.28;;;0.82;;
59950;SDS011;45812;53.540;9.774;2022-07-23T14:43:06;1.25;;;0.73;;
59950;SDS011;45812;53.540;9.774;2022-07-23T14:45:31;5.40;;;0.93;;
59950;SDS011;45812;53.540;9.774;2022-07-23T14:47:57;2.08;;;0.85;;
59950;SDS011;45812;53.540;9.774;2022-07-23T14:50:23;2.45;;;1.55;;
59950;SDS011;45812;53.540;9.774;2022-07-23T14:52:48;3.90;;;1.25;;
59950;SDS011;45812;53.540;9.774;2022-07-23T14:55:13;5.22;;;0.77;;
59950;SDS011;45812;53.540;9.774;2022-07-23T14:57:39;0.98;;;0.80;;
59950;SDS011;45812;53.540;9.774;2022-07-23T15:00:04;0.60;;;0.60;;
59950;SDS011;45812;53.540;9.774;2022-07-23T15:02:31;2.15;;;0.93;;
59950;SDS011;45812;53.540;9.774;2022-07-23T15:04:56;1.95;;;0.70;;
59950;SDS011;45812;53.540;9.774;2022-07-23T15:07:25;0.57;;;0.57;;
59950;SDS011;45812;53.540;9.774;2022-07-23T15:09:51;3.05;;;0.77;;
59950;SDS011;45812;53.540;9.774;2022-07-23T15:12:16;3.05;;;1.15;;
59950;SDS011;45812;53.540;9.774;2022-07-23T15:14:41;3.28;;;1.70;;
59950;SDS011;45812;53.540;9.774;2022-07-23T15:17:07;2.17;;;1.20;;
59950;SDS011;45812;53.540;9.774;2022-07-23T15:19:33;3.22;;;0.70;;
59950;SDS011;45812;53.540;9.774;2022-07-23T15:21:58;1.77;;;1.15;;
59950;SDS011;45812;53.540;9.774;2022-07-23T15:24:24;8.00;;;1.88;;
59950;SDS011;45812;53.540;9.774;2022-07-23T15:26:49;0.65;;;0.60;;
59950;SDS011;45812;53.540;9.774;2022-07-23T15:29:15;2.50;;;0.88;;
59950;SDS011;45812;53.540;9.774;2022-07-23T15:31:40;3.67;;;1.20;;
59950;SDS011;45812;53.540;9.774;2022-07-23T15:34:06;4.63;;;1.05;;
59950;SDS011;45812;53.540;9.774;2022-07-23T15:36:31;6.00;;;0.88;;
59950;SDS011;45812;53.540;9.774;2022-07-23T15:38:56;1.35;;;0.82;;
59950;SDS011;45812;53.540;9.774;2022-07-23T15:41:22;1.67;;;1.30;;